Time;durP1;ratioP1;P1;durP2;ratioP2;P2;SDS_P1;SDS_P2;PMS_P1;PMS_P2;Temp;Humidity;BMP_temperature;BMP_pressure;BME280_temperature;BME280_humidity;BME280_pressure;Samples;Min_cycle;Max_cycle;Signal;HPM_P1;HPM_P2
2023/06/02 00:01:51;;;;;;;5.20;3.67;;;;;;;25.25;51.49;100778.78;5094466;28;20039;-57
2023/06/02 00:04:23;;;;;;;6.10;3.90;;;;;;;25.25;51.62;100784.19;5094118;28;20480;-57
2023/06/02 00:06:51;;;;;;;5.07;3.42;;;;;;;25.24;51.66;100780.66;5093963;28;20523;-58
2023/06/02 00:09:19;;;;;;;4.18;3.50;;;;;;;25.24;51.58;100780.66;5094079;28;20044;-57
2023/06/02 00:11:46;;;;;;;4.45;3.30;;;;;;;25.25;51.70;100781.47;5093587;28;20036;-57
2023/06/02 00:14:14;;;;;;;5.07;3.80;;;;;;;25.25;51.47;100784.19;5094084;28;20048;-57
2023/06/02 00:16:44;;;;;;;4.68;3.55;;;;;;;25.24;51.43;100783.34;5093707;28;20051;-57
2023/06/02 00:19:13;;;;;;;4.63;3.75;;;;;;;25.24;51.74;100791.47;5093784;28;20054;-57
2023/06/02 00:21:41;;;;;;;4.85;3.47;;;;;;;25.25;51.49;100784.19;5093815;28;20063;-57
2023/06/02 00:24:09;;;;;;;5.75;3.67;;;;;;;25.24;51.75;100791.47;5093884;28;20040;-57
2023/06/02 00:26:37;;;;;;;4.85;3.72;;;;;;;25.25;51.69;100792.31;5093437;28;20044;-57
2023/06/02 00:29:05;;;;;;;4.32;3.63;;;;;;;25.25;51.53;100798.59;5093555;28;20040;-57
2023/06/02 00:31:33;;;;;;;5.40;3.42;;;;;;;25.24;51.50;100783.34;5093658;28;20107;-57
2023/06/02 00:34:01;;;;;;;4.10;3.60;;;;;;;25.26;51.74;100781.31;5092324;28;20407;-57
2023/06/02 00:36:28;;;;;;;5.63;4.00;;;;;;;25.27;51.82;100784.84;5093188;28;20056;-57
2023/06/02 00:38:55;;;;;;;8.05;3.85;;;;;;;25.26;51.90;100780.47;5092086;28;20070;-56
2023/06/02 00:41:23;;;;;;;3.97;3.58;;;;;;;25.26;51.85;100781.31;5081723;28;20039;-57
2023/06/02 00:43:50;;;;;;;4.40;3.55;;;;;;;25.27;51.90;100777.56;5071432;28;20056;-56
2023/06/02 00:46:18;;;;;;;3.70;3.08;;;;;;;25.28;51.76;100771.16;5072917;28;20048;-57
2023/06/02 00:48:48;;;;;;;5.97;3.67;;;;;;;25.28;51.88;100782.00;5071796;28;20416;-56
2023/06/02 00:51:16;;;;;;;3.90;3.50;;;;;;;25.28;51.86;100773.88;5073486;28;20041;-57
2023/06/02 00:53:45;;;;;;;5.10;3.28;;;;;;;25.28;51.97;100767.56;5073240;28;20044;-57
2023/06/02 00:56:13;;;;;;;4.18;3.25;;;;;;;25.28;51.76;100773.88;5072861;28;20052;-57
2023/06/02 00:58:45;;;;;;;5.00;3.78;;;;;;;25.29;51.85;100785.53;5072892;28;20047;-57
2023/06/02 01:01:12;;;;;;;4.60;3.30;;;;;;;25.26;51.99;100780.47;5084723;28;20396;-57
2023/06/02 01:03:43;;;;;;;4.40;3.45;;;;;;;25.27;51.89;100769.44;5092004;28;20308;-57
2023/06/02 01:06:13;;;;;;;4.18;3.55;;;;;;;25.27;51.99;100772.16;5093145;28;20048;-57
2023/06/02 01:08:43;;;;;;;4.43;3.58;;;;;;;25.26;52.02;100775.88;5093074;28;20044;-57
2023/06/02 01:11:11;;;;;;;3.75;3.30;;;;;;;25.26;52.04;100780.47;5091181;28;20044;-57
2023/06/02 01:13:38;;;;;;;4.43;3.70;;;;;;;25.26;51.94;100775.03;5091885;28;20063;-57
2023/06/02 01:16:06;;;;;;;4.40;3.60;;;;;;;25.25;52.03;100765.22;5092808;28;20047;-57
2023/06/02 01:18:35;;;;;;;4.65;3.35;;;;;;;25.25;51.85;100773.34;5091795;28;20051;-57
2023/06/02 01:21:05;;;;;;;5.88;3.45;;;;;;;25.25;51.94;100762.50;5096713;28;20059;-57
2023/06/02 01:23:35;;;;;;;7.80;4.00;;;;;;;25.26;52.09;100758.78;5096589;28;20044;-57
2023/06/02 01:26:08;;;;;;;4.85;3.30;;;;;;;25.24;52.04;100758.97;5097199;28;20043;-57
2023/06/02 01:28:38;;;;;;;4.10;3.17;;;;;;;25.24;52.12;100755.38;5096342;28;20052;-57
2023/06/02 01:31:06;;;;;;;4.20;3.40;;;;;;;25.24;52.04;100756.25;5095409;28;20048;-57
2023/06/02 01:33:47;;;;;;;4.72;3.90;;;;;;;25.25;51.90;100762.50;5096542;28;20059;-57
2023/06/02 01:36:20;;;;;;;4.70;3.63;;;;;;;25.24;51.87;100755.38;5096624;28;20102;-57
2023/06/02 01:38:49;;;;;;;4.85;3.92;;;;;;;25.23;51.83;100754.53;5097016;28;20051;-57
2023/06/02 01:41:19;;;;;;;3.97;3.25;;;;;;;25.23;51.93;100759.13;5092232;28;20560;-57
2023/06/02 01:43:48;;;;;;;6.93;3.50;;;;;;;25.23;51.89;100759.13;5084158;28;20052;-57
2023/06/02 01:46:16;;;;;;;5.15;3.70;;;;;;;25.23;52.14;100759.13;5095733;28;20399;-56
2023/06/02 01:48:43;;;;;;;5.13;3.58;;;;;;;25.24;52.00;100775.22;5095556;28;20052;-57
2023/06/02 01:51:11;;;;;;;4.03;3.53;;;;;;;25.22;51.84;100755.56;5096616;28;20032;-57
2023/06/02 01:53:38;;;;;;;4.35;3.28;;;;;;;25.23;52.02;100759.13;5096726;28;20036;-57
2023/06/02 01:56:06;;;;;;;3.58;3.03;;;;;;;25.21;51.97;100753.88;5095688;28;20134;-56
2023/06/02 01:58:36;;;;;;;4.60;3.40;;;;;;;25.22;51.79;100755.56;5095087;28;20048;-57
2023/06/02 02:01:03;;;;;;;4.15;3.08;;;;;;;25.23;51.92;100753.69;5095375;28;20055;-57
2023/06/02 02:03:32;;;;;;;4.43;3.50;;;;;;;25.23;51.86;100754.53;5096583;28;20478;-57
2023/06/02 02:06:01;;;;;;;4.97;3.55;;;;;;;25.22;51.85;100744.72;5096444;28;20044;-57
2023/06/02 02:08:29;;;;;;;4.00;3.38;;;;;;;25.22;51.85;100746.59;5096106;28;20052;-57
2023/06/02 02:10:56;;;;;;;4.30;3.35;;;;;;;25.23;51.89;100748.28;5096786;28;20051;-57
2023/06/02 02:13:24;;;;;;;5.32;3.63;;;;;;;25.22;51.87;100742.03;5096480;28;20053;-57
2023/06/02 02:15:51;;;;;;;6.22;3.47;;;;;;;25.21;51.90;100743.03;5078137;28;20052;-56
2023/06/02 02:18:20;;;;;;;4.05;3.53;;;;;;;25.21;51.85;100745.75;5095325;28;20052;-56
2023/06/02 02:20:48;;;;;;;4.47;3.85;;;;;;;25.22;51.67;100738.47;5095966;28;20048;-57
2023/06/02 02:23:15;;;;;;;3.90;3.30;;;;;;;25.22;52.09;100741.19;5095839;28;20040;-57
2023/06/02 02:25:42;;;;;;;4.13;3.67;;;;;;;25.21;51.79;100734.06;5095305;28;20055;-57
2023/06/02 02:28:10;;;;;;;7.20;4.53;;;;;;;25.22;51.93;100738.47;5094569;28;20368;-57
2023/06/02 02:30:37;;;;;;;4.20;3.30;;;;;;;25.22;51.63;100738.47;5094703;28;20067;-57
2023/06/02 02:33:05;;;;;;;3.72;3.30;;;;;;;25.21;51.96;100740.34;5094803;28;20048;-56
2023/06/02 02:35:32;;;;;;;5.25;4.03;;;;;;;25.22;52.05;100746.59;5095881;28;20060;-57
2023/06/02 02:38:00;;;;;;;5.65;3.67;;;;;;;25.22;52.17;100735.75;5077956;28;20480;-57
2023/06/02 02:40:29;;;;;;;4.10;3.67;;;;;;;25.21;51.97;100743.03;5094835;28;20051;-57
2023/06/02 02:42:56;;;;;;;4.90;3.65;;;;;;;25.22;52.01;100741.19;5085426;28;20044;-57
2023/06/02 02:45:24;;;;;;;5.60;3.03;;;;;;;25.21;52.08;100740.34;5090488;28;20059;-57
2023/06/02 02:47:52;;;;;;;4.03;3.33;;;;;;;25.21;52.19;100743.03;5074165;28;20052;-57
2023/06/02 02:50:20;;;;;;;4.13;3.08;;;;;;;25.22;52.27;100735.75;5075639;28;20053;-57
2023/06/02 02:52:47;;;;;;;5.45;3.60;;;;;;;25.21;52.07;100748.47;5074901;28;20056;-57
2023/06/02 02:55:14;;;;;;;4.45;3.20;;;;;;;25.22;52.01;100742.03;5075111;28;20040;-57
2023/06/02 02:57:42;;;;;;;3.53;2.97;;;;;;;25.22;52.12;100744.72;5073698;28;20055;-57
2023/06/02 03:00:10;;;;;;;4.78;3.25;;;;;;;25.20;52.18;100735.94;5073501;28;20563;-57
2023/06/02 03:02:38;;;;;;;4.38;3.15;;;;;;;25.21;52.10;100745.75;5086612;28;20048;-57
2023/06/02 03:05:08;;;;;;;4.47;3.70;;;;;;;25.21;52.00;100744.91;5073639;28;20063;-56
2023/06/02 03:07:35;;;;;;;4.53;3.22;;;;;;;25.21;51.98;100742.22;5073477;28;20056;-57
2023/06/02 03:10:03;;;;;;;5.70;3.42;;;;;;;25.22;51.98;100744.72;5073363;28;20049;-57
2023/06/02 03:12:32;;;;;;;4.07;3.38;;;;;;;25.22;51.89;100739.31;5074832;28;20036;-57
2023/06/02 03:15:01;;;;;;;4.72;3.40;;;;;;;25.22;51.93;100733.91;5074164;28;20048;-57
2023/06/02 03:17:29;;;;;;;3.97;3.20;;;;;;;25.24;52.05;100739.13;5073320;28;20049;-57
2023/06/02 03:19:56;;;;;;;4.43;3.50;;;;;;;25.23;52.11;100738.28;5073182;28;20055;-57
2023/06/02 03:22:24;;;;;;;4.80;4.22;;;;;;;25.23;51.86;100734.72;5073434;28;20056;-58
2023/06/02 03:24:52;;;;;;;4.03;3.08;;;;;;;25.23;51.89;100737.44;5074341;28;20059;-57
2023/06/02 03:27:21;;;;;;;4.50;3.60;;;;;;;25.24;52.09;100733.72;5073914;28;20060;-57
2023/06/02 03:29:53;;;;;;;5.45;3.28;;;;;;;25.23;52.05;100735.56;5073097;28;20531;-57
2023/06/02 03:32:25;;;;;;;5.38;3.42;;;;;;;25.23;52.20;100727.44;5072861;28;20064;-57
2023/06/02 03:34:53;;;;;;;5.15;3.55;;;;;;;25.24;52.26;100728.28;5074014;28;20044;-57
2023/06/02 03:37:21;;;;;;;3.97;3.33;;;;;;;25.24;52.20;100733.72;5072763;28;20052;-57
2023/06/02 03:39:49;;;;;;;5.82;3.60;;;;;;;25.22;52.20;100725.75;5073215;28;20049;-57
2023/06/02 03:42:19;;;;;;;4.75;4.03;;;;;;;25.23;51.89;100732.03;5072734;28;20069;-57
2023/06/02 03:44:46;;;;;;;5.20;3.90;;;;;;;25.22;52.42;100735.75;5072054;28;20044;-57
2023/06/02 03:47:15;;;;;;;4.18;3.45;;;;;;;25.21;52.29;100740.34;5086633;28;20496;-57
2023/06/02 03:49:42;;;;;;;4.03;3.50;;;;;;;25.21;52.21;100734.06;5093154;28;20488;-57
2023/06/02 03:52:10;;;;;;;5.00;3.90;;;;;;;25.21;51.94;100742.22;5093122;28;20044;-57
2023/06/02 03:54:37;;;;;;;4.90;3.95;;;;;;;25.22;52.37;100741.19;5094249;28;20512;-57
2023/06/02 03:57:05;;;;;;;6.43;3.85;;;;;;;25.20;52.16;100745.91;5092956;28;20059;-57
2023/06/02 03:59:33;;;;;;;4.43;3.28;;;;;;;25.20;52.23;100738.66;5093817;28;20373;-57
2023/06/02 04:02:00;;;;;;;3.60;3.08;;;;;;;25.21;52.51;100747.63;5092415;28;20071;-57
2023/06/02 04:04:28;;;;;;;5.10;3.83;;;;;;;25.20;52.42;100754.91;5093080;28;20056;-57
2023/06/02 04:06:57;;;;;;;5.03;3.78;;;;;;;25.21;52.25;100751.19;5092921;28;20060;-57
2023/06/02 04:09:25;;;;;;;4.97;3.40;;;;;;;25.20;52.16;100748.63;5092696;28;20048;-57
2023/06/02 04:11:53;;;;;;;5.15;3.95;;;;;;;25.20;52.42;100743.19;5093865;28;20048;-57
2023/06/02 04:14:21;;;;;;;5.35;4.18;;;;;;;25.19;52.21;100753.19;5093005;28;20056;-57
2023/06/02 04:16:50;;;;;;;5.22;4.10;;;;;;;25.19;52.10;100746.94;5092827;28;20055;-57
2023/06/02 04:19:20;;;;;;;3.88;3.33;;;;;;;25.19;52.08;100755.91;5075928;28;20047;-57
2023/06/02 04:21:47;;;;;;;4.93;3.80;;;;;;;25.18;52.44;100758.81;5093165;28;20066;-57
2023/06/02 04:24:15;;;;;;;4.45;3.47;;;;;;;25.20;52.27;100756.75;5092222;28;20040;-57
2023/06/02 04:26:42;;;;;;;4.97;3.80;;;;;;;25.20;52.25;100756.75;5092234;28;20480;-57
2023/06/02 04:29:10;;;;;;;4.22;3.40;;;;;;;25.19;52.30;100757.78;5092867;28;20044;-57
2023/06/02 04:31:43;;;;;;;4.03;3.47;;;;;;;25.20;52.25;100756.75;5092504;28;20048;-57
2023/06/02 04:34:15;;;;;;;4.03;3.63;;;;;;;25.19;52.28;100763.19;5092100;28;20520;-57
2023/06/02 04:36:45;;;;;;;5.72;3.92;;;;;;;25.21;52.18;100769.31;5093541;28;20054;-57
2023/06/02 04:39:14;;;;;;;3.53;3.22;;;;;;;25.18;52.35;100765.06;5092416;28;20056;-57
2023/06/02 04:41:42;;;;;;;5.45;3.78;;;;;;;25.19;52.36;100768.59;5093804;28;20055;-57
2023/06/02 04:44:11;;;;;;;4.38;3.67;;;;;;;25.19;52.35;100768.59;5091784;28;20055;-57
2023/06/02 04:46:39;;;;;;;4.50;3.38;;;;;;;25.20;52.56;100770.28;5070429;28;20056;-57
2023/06/02 04:49:09;;;;;;;4.18;3.60;;;;;;;25.18;52.44;100772.34;5071808;28;20051;-57
2023/06/02 04:51:38;;;;;;;4.90;4.10;;;;;;;25.18;52.45;100767.78;5071563;28;20055;-57
2023/06/02 04:54:08;;;;;;;4.95;4.03;;;;;;;25.18;52.45;100778.59;5070252;28;20045;-57
2023/06/02 04:56:36;;;;;;;5.72;4.45;;;;;;;25.18;52.44;100767.78;5071821;28;20052;-58
2023/06/02 04:59:08;;;;;;;4.43;3.47;;;;;;;25.19;52.63;100771.31;5071707;28;20048;-57
2023/06/02 05:01:36;;;;;;;6.05;3.78;;;;;;;25.18;52.40;100769.63;5074888;28;20051;-57
2023/06/02 05:04:04;;;;;;;4.40;3.58;;;;;;;25.18;52.60;100761.50;5091563;28;20055;-57
2023/06/02 05:06:33;;;;;;;7.30;4.28;;;;;;;25.18;52.64;100761.50;5092495;28;20052;-57
2023/06/02 05:09:02;;;;;;;4.43;3.83;;;;;;;25.17;52.63;100766.09;5093041;28;20048;-57
2023/06/02 05:11:32;;;;;;;5.57;4.15;;;;;;;25.18;52.44;100766.94;5092068;28;20063;-57
2023/06/02 05:14:02;;;;;;;4.47;4.03;;;;;;;25.18;52.28;100769.63;5093458;28;20047;-57
2023/06/02 05:16:30;;;;;;;5.07;3.53;;;;;;;25.18;52.44;100773.19;5091511;28;20044;-57
2023/06/02 05:18:58;;;;;;;4.65;3.80;;;;;;;25.19;52.31;100779.44;5092099;28;20055;-57
2023/06/02 05:21:28;;;;;;;4.40;3.95;;;;;;;25.18;52.27;100773.19;5091539;28;20052;-57
2023/06/02 05:23:58;;;;;;;5.82;3.75;;;;;;;25.18;52.42;100773.19;5091463;28;20499;-57
2023/06/02 05:26:26;;;;;;;4.10;3.65;;;;;;;25.19;52.55;100774.88;5092835;28;20044;-57
2023/06/02 05:28:54;;;;;;;4.50;3.78;;;;;;;25.19;52.59;100774.88;5091716;28;20063;-57
2023/06/02 05:31:23;;;;;;;4.53;3.35;;;;;;;25.18;52.44;100777.75;5091826;28;20055;-57
2023/06/02 05:33:52;;;;;;;4.60;3.67;;;;;;;25.19;52.29;100780.28;5093061;28;20059;-57
2023/06/02 05:36:19;;;;;;;5.30;4.40;;;;;;;25.19;52.50;100774.88;5092149;28;20523;-57
2023/06/02 05:38:47;;;;;;;5.05;3.67;;;;;;;25.19;52.55;100784.88;5091301;28;20066;-57
2023/06/02 05:41:14;;;;;;;4.30;3.47;;;;;;;25.19;52.42;100782.16;5093165;28;20057;-57
2023/06/02 05:43:42;;;;;;;4.03;3.53;;;;;;;25.19;52.49;100783.00;5091597;28;20052;-57
2023/06/02 05:46:10;;;;;;;5.35;4.28;;;;;;;25.18;52.40;100784.03;5080708;28;20064;-57
2023/06/02 05:48:38;;;;;;;4.88;3.58;;;;;;;25.19;52.67;100771.31;5071320;28;20071;-57
2023/06/02 05:51:06;;;;;;;4.30;3.72;;;;;;;25.19;52.40;100769.44;5071445;28;20049;-57
2023/06/02 05:53:33;;;;;;;4.63;3.95;;;;;;;25.18;52.66;100773.19;5071381;28;20484;-57
2023/06/02 05:56:01;;;;;;;5.43;4.15;;;;;;;25.19;52.62;100761.31;5071030;28;20409;-58
2023/06/02 05:58:29;;;;;;;3.90;3.50;;;;;;;25.19;52.52;100769.44;5071445;28;20508;-58
2023/06/02 06:00:57;;;;;;;5.22;3.92;;;;;;;25.20;52.57;100770.28;5071216;28;20044;-57
2023/06/02 06:03:25;;;;;;;4.40;3.95;;;;;;;25.20;52.53;100759.47;5071997;28;20052;-57
2023/06/02 06:05:52;;;;;;;4.13;3.47;;;;;;;25.19;52.71;100769.44;5072280;28;20044;-57
2023/06/02 06:08:20;;;;;;;4.72;4.22;;;;;;;25.20;52.55;100770.28;5076299;28;20408;-57
2023/06/02 06:10:48;;;;;;;5.28;3.75;;;;;;;25.20;52.62;100770.28;5074798;28;20059;-58
2023/06/02 06:13:17;;;;;;;5.93;3.85;;;;;;;25.21;52.53;100769.31;5074294;28;20040;-57
2023/06/02 06:15:47;;;;;;;3.92;3.40;;;;;;;25.20;52.77;100775.72;5076147;28;20056;-57
2023/06/02 06:18:15;;;;;;;5.80;4.13;;;;;;;25.20;52.48;100782.00;5075166;28;20404;-57
2023/06/02 06:20:43;;;;;;;5.72;4.35;;;;;;;25.21;52.48;100778.28;5074701;28;20411;-57
2023/06/02 06:23:15;;;;;;;4.43;3.95;;;;;;;25.21;52.67;100777.44;5074412;28;20045;-58
2023/06/02 06:25:43;;;;;;;4.05;3.65;;;;;;;25.21;52.45;100782.84;5074549;28;20432;-58
2023/06/02 06:28:11;;;;;;;4.93;3.78;;;;;;;25.21;52.72;100774.72;5075740;28;20392;-58
2023/06/02 06:30:40;;;;;;;5.05;4.20;;;;;;;25.23;52.55;100775.38;5074734;28;20059;-57
2023/06/02 06:33:08;;;;;;;5.88;3.95;;;;;;;25.22;52.65;100776.41;5074475;28;20044;-56
2023/06/02 06:35:36;;;;;;;5.32;3.90;;;;;;;25.22;52.98;100768.28;5074391;28;20056;-58
2023/06/02 06:38:07;;;;;;;5.72;3.80;;;;;;;25.23;52.81;100778.94;5074432;28;20055;-56
2023/06/02 06:40:34;;;;;;;7.18;3.65;;;;;;;25.23;52.67;100772.66;5074778;28;20052;-58
2023/06/02 06:43:02;;;;;;;4.65;3.92;;;;;;;25.24;52.84;100779.78;5075381;28;20044;-58
2023/06/02 06:45:55;;;;;;;5.22;4.10;;;;;;;25.23;52.79;100787.06;5074046;28;20052;-57
2023/06/02 06:48:23;;;;;;;6.10;4.25;;;;;;;25.23;52.79;100775.38;5056687;28;20044;-58
2023/06/02 06:50:51;;;;;;;5.05;4.38;;;;;;;25.24;52.81;100787.91;5075553;28;20056;-57
2023/06/02 06:53:18;;;;;;;8.30;4.30;;;;;;;25.24;52.98;100780.66;5075049;28;20055;-57
2023/06/02 06:55:47;;;;;;;4.80;4.05;;;;;;;25.25;52.94;100773.34;5075436;28;20400;-57
2023/06/02 06:58:14;;;;;;;4.78;4.25;;;;;;;25.24;52.96;100777.94;5074871;28;20396;-58
2023/06/02 07:00:41;;;;;;;4.18;3.70;;;;;;;25.24;52.77;100777.94;5075051;28;20072;-58
2023/06/02 07:03:09;;;;;;;5.07;4.38;;;;;;;25.25;52.71;100778.78;5087010;28;20044;-57
2023/06/02 07:05:36;;;;;;;4.65;4.20;;;;;;;25.25;52.85;100774.19;5095081;28;20496;-58
2023/06/02 07:08:04;;;;;;;5.13;4.28;;;;;;;25.26;52.94;100772.31;5095271;28;20049;-57
2023/06/02 07:10:31;;;;;;;4.90;4.30;;;;;;;25.27;52.95;100782.97;5094677;28;20094;-57
2023/06/02 07:12:59;;;;;;;5.55;4.55;;;;;;;25.27;52.96;100780.28;5094632;28;20056;-57
2023/06/02 07:15:27;;;;;;;6.07;4.80;;;;;;;25.28;52.94;100783.81;5095114;28;20044;-57
2023/06/02 07:17:54;;;;;;;9.50;4.82;;;;;;;25.28;52.95;100781.13;5093838;28;20044;-57
2023/06/02 07:20:21;;;;;;;7.25;4.95;;;;;;;25.28;52.68;100779.28;5094941;28;20048;-57
2023/06/02 07:22:49;;;;;;;5.80;4.95;;;;;;;25.30;52.91;100773.69;5095179;28;20044;-57
2023/06/02 07:25:16;;;;;;;6.32;5.00;;;;;;;25.31;52.84;100775.38;5093474;28;20048;-57
2023/06/02 07:27:43;;;;;;;6.53;4.68;;;;;;;25.32;52.79;100774.34;5094862;28;20051;-59
2023/06/02 07:30:11;;;;;;;6.15;5.18;;;;;;;25.34;52.81;100784.00;5094606;28;20048;-59
2023/06/02 07:32:39;;;;;;;8.43;7.50;;;;;;;25.35;52.58;100779.41;5094300;28;20055;-61
2023/06/02 07:35:06;;;;;;;11.80;9.45;;;;;;;25.26;52.33;100770.47;5094632;28;20067;-57
2023/06/02 07:37:34;;;;;;;10.00;8.90;;;;;;;25.24;52.22;100771.63;5094217;28;20063;-58
2023/06/02 07:40:01;;;;;;;10.05;8.52;;;;;;;25.25;52.31;100774.19;5094320;28;20044;-59
2023/06/02 07:42:29;;;;;;;14.32;11.18;;;;;;;25.26;52.31;100781.31;5094282;28;20419;-60
2023/06/02 07:44:56;;;;;;;15.68;14.07;;;;;;;25.21;52.00;100777.44;5094506;28;20051;-57
2023/06/02 07:47:23;;;;;;;15.88;13.15;;;;;;;25.14;52.13;100783.50;5091480;28;20507;-57
2023/06/02 07:49:51;;;;;;;16.77;12.45;;;;;;;25.14;51.95;100788.94;5073382;28;20386;-57
2023/06/02 07:52:19;;;;;;;14.45;12.27;;;;;;;25.15;51.97;100785.19;5084406;28;20040;-58
2023/06/02 07:54:46;;;;;;;16.25;13.38;;;;;;;25.20;52.28;100786.56;5094104;28;20043;-58
2023/06/02 07:57:14;;;;;;;15.45;13.88;;;;;;;25.18;51.83;100777.75;5094300;28;20051;-58
2023/06/02 07:59:41;;;;;;;15.13;13.43;;;;;;;25.15;51.85;100793.31;5094013;28;20059;-59
2023/06/02 08:02:08;;;;;;;17.80;15.25;;;;;;;25.13;51.65;100787.25;5093007;28;20403;-60
2023/06/02 08:04:36;;;;;;;14.52;13.02;;;;;;;25.12;51.91;100787.44;5073591;28;20047;-61
2023/06/02 08:07:04;;;;;;;15.60;13.88;;;;;;;25.13;52.15;100778.28;5072465;28;20049;-61
2023/06/02 08:09:32;;;;;;;15.32;13.00;;;;;;;25.12;52.17;100780.16;5073664;28;20056;-61
2023/06/02 08:11:59;;;;;;;14.40;12.90;;;;;;;25.13;52.15;100776.41;5073795;28;20052;-57
2023/06/02 08:14:29;;;;;;;14.95;12.85;;;;;;;25.13;52.29;100776.41;5072034;28;20131;-58
2023/06/02 08:16:57;;;;;;;14.90;12.80;;;;;;;25.11;52.20;100778.44;5073633;28;20040;-59
2023/06/02 08:19:26;;;;;;;14.60;13.10;;;;;;;25.09;52.29;100768.81;5073871;28;20067;-59
2023/06/02 08:21:53;;;;;;;15.07;12.98;;;;;;;25.08;52.44;100781.47;5073421;28;20048;-57
2023/06/02 08:24:24;;;;;;;13.90;12.45;;;;;;;25.07;52.49;100771.63;5073289;28;20044;-57
2023/06/02 08:26:54;;;;;;;15.80;11.00;;;;;;;25.08;52.38;100773.34;5073509;28;20044;-58
2023/06/02 08:29:23;;;;;;;12.43;11.13;;;;;;;25.09;52.18;100766.09;5073097;28;20056;-56
2023/06/02 08:31:51;;;;;;;13.57;12.18;;;;;;;25.05;51.65;100762.84;5073351;28;20044;-56
2023/06/02 08:34:20;;;;;;;12.70;11.40;;;;;;;25.05;51.97;100773.69;5073507;28;20041;-55
2023/06/02 08:36:56;;;;;;;14.02;12.52;;;;;;;25.05;51.89;100773.69;5072935;28;20057;-55
2023/06/02 08:39:25;;;;;;;13.30;11.52;;;;;;;25.06;51.83;100764.53;5072898;28;20075;-57
2023/06/02 08:41:55;;;;;;;12.90;11.68;;;;;;;25.09;51.86;100771.50;5073021;28;20048;-56
2023/06/02 08:44:23;;;;;;;13.48;11.73;;;;;;;25.11;52.32;100767.59;5073287;28;20045;-57
2023/06/02 08:46:51;;;;;;;12.93;11.57;;;;;;;25.13;52.09;100765.56;5072903;28;20051;-57
2023/06/02 08:49:22;;;;;;;13.30;11.98;;;;;;;25.14;52.31;100761.84;5074491;28;20461;-57
2023/06/02 08:52:00;;;;;;;13.95;12.55;;;;;;;25.15;51.87;100763.53;5072845;28;20495;-59
2023/06/02 08:54:29;;;;;;;14.55;13.02;;;;;;;25.14;52.22;100753.72;5072524;28;20191;-58
2023/06/02 08:57:00;;;;;;;12.80;11.25;;;;;;;25.15;52.26;100763.53;5072761;28;20044;-55
2023/06/02 08:59:27;;;;;;;15.18;12.85;;;;;;;25.13;51.88;100757.44;5073315;28;20067;-56
2023/06/02 09:01:55;;;;;;;13.52;12.23;;;;;;;25.14;51.77;100756.44;5072680;28;20052;-56
2023/06/02 09:04:23;;;;;;;13.38;11.98;;;;;;;25.14;51.81;100764.56;5071604;28;20520;-55
2023/06/02 09:07:13;;;;;;;12.23;11.02;;;;;;;25.17;52.09;100762.53;5073149;28;20049;-57
2023/06/02 09:09:53;;;;;;;15.07;12.05;;;;;;;25.18;52.26;100756.94;5072653;28;20044;-57
2023/06/02 09:12:24;;;;;;;14.23;12.45;;;;;;;25.20;52.16;100757.63;5072790;28;20056;-55
2023/06/02 09:15:18;;;;;;;13.43;11.20;;;;;;;25.23;52.07;100765.38;5072481;28;20045;-55
2023/06/02 09:17:45;;;;;;;12.57;11.30;;;;;;;25.23;51.77;100761.81;5072019;28;20068;-56
2023/06/02 09:20:14;;;;;;;13.45;11.93;;;;;;;25.23;51.86;100753.69;5072910;28;20052;-56
2023/06/02 09:22:55;;;;;;;13.75;12.15;;;;;;;25.23;51.91;100765.38;5072718;28;20048;-56
2023/06/02 09:25:25;;;;;;;12.48;10.50;;;;;;;25.23;51.78;100756.41;5073166;28;20045;-56
2023/06/02 09:27:55;;;;;;;12.77;11.30;;;;;;;25.24;51.52;100758.09;5072301;28;20048;-56
2023/06/02 09:30:23;;;;;;;12.50;11.20;;;;;;;25.24;51.56;100752.69;5072654;28;20048;-56
2023/06/02 09:32:56;;;;;;;11.38;10.18;;;;;;;25.26;51.74;100754.19;5073059;28;20044;-57
2023/06/02 09:35:34;;;;;;;10.90;9.65;;;;;;;25.29;52.19;100747.59;5071132;28;20049;-58
2023/06/02 09:38:08;;;;;;;13.13;10.20;;;;;;;25.34;53.72;100747.91;5071066;28;20079;-58
2023/06/02 09:40:35;;;;;;;12.25;10.95;;;;;;;25.37;55.79;100753.84;5072978;28;20044;-57
2023/06/02 09:43:05;;;;;;;11.63;10.32;;;;;;;25.37;55.46;100751.13;5075697;28;20052;-57
2023/06/02 09:45:54;;;;;;;13.88;11.65;;;;;;;25.36;54.06;100744.03;5076217;28;20043;-58
2023/06/02 09:48:27;;;;;;;12.68;11.05;;;;;;;25.36;53.19;100751.28;5078597;28;20526;-58
2023/06/02 09:50:56;;;;;;;14.02;12.30;;;;;;;25.37;53.39;100750.28;5079287;28;20102;-56
2023/06/02 09:53:24;;;;;;;12.38;11.10;;;;;;;25.37;53.29;100756.56;5075641;28;20048;-57
2023/06/02 09:55:52;;;;;;;15.25;12.65;;;;;;;25.38;53.21;100750.09;5075830;28;20059;-57
2023/06/02 09:58:20;;;;;;;13.63;10.65;;;;;;;25.38;53.04;100743.84;5075634;28;20045;-56
2023/06/02 10:00:47;;;;;;;10.82;9.73;;;;;;;25.40;52.81;100744.50;5087568;28;20479;-56
2023/06/02 10:03:16;;;;;;;11.75;10.57;;;;;;;25.39;52.89;100740.94;5085625;28;20053;-55
2023/06/02 10:05:56;;;;;;;12.07;10.70;;;;;;;25.42;52.79;100736.22;5081084;28;20048;-57
2023/06/02 10:09:02;;;;;;;11.95;10.75;;;;;;;25.43;53.28;100740.59;5075266;28;20051;-58
2023/06/02 10:12:00;;;;;;;14.30;12.27;;;;;;;25.43;53.11;100732.47;5075991;28;20049;-58
2023/06/02 10:14:52;;;;;;;13.73;12.32;;;;;;;25.42;52.96;100736.22;5074565;28;20573;-58
2023/06/02 10:17:39;;;;;;;12.68;11.43;;;;;;;25.43;52.82;100727.91;5075817;28;20041;-58
2023/06/02 10:20:35;;;;;;;12.63;11.43;;;;;;;25.44;53.30;100723.31;5076075;28;20044;-57
2023/06/02 10:23:39;;;;;;;12.50;11.05;;;;;;;25.44;52.87;100718.75;5074775;28;20059;-57
2023/06/02 10:26:39;;;;;;;13.40;11.68;;;;;;;25.44;52.37;100728.75;5075719;28;20044;-57
2023/06/02 10:29:08;;;;;;;11.57;10.40;;;;;;;25.46;52.01;100730.28;5075649;28;20045;-57
2023/06/02 10:31:36;;;;;;;11.32;10.23;;;;;;;25.48;52.26;100724.66;5074522;28;20052;-57
2023/06/02 10:34:04;;;;;;;11.55;10.45;;;;;;;25.48;52.26;100722.81;5075871;28;20049;-57
2023/06/02 10:37:10;;;;;;;11.10;9.27;;;;;;;25.49;52.26;100727.22;5075167;28;20496;-57
2023/06/02 10:39:40;;;;;;;13.55;11.32;;;;;;;25.51;52.14;100721.59;5075303;28;20051;-57
2023/06/02 10:42:13;;;;;;;13.18;10.68;;;;;;;25.50;52.07;100720.75;5074572;28;20059;-57
2023/06/02 10:44:40;;;;;;;11.68;10.32;;;;;;;25.51;51.84;100722.44;5075762;28;20049;-58
2023/06/02 10:47:19;;;;;;;12.77;11.35;;;;;;;25.52;51.31;100721.47;5075186;28;20040;-58
2023/06/02 10:49:51;;;;;;;12.25;10.73;;;;;;;25.54;51.18;100718.56;5075112;28;20048;-58
2023/06/02 10:52:19;;;;;;;11.48;10.30;;;;;;;25.54;51.23;100719.41;5075424;28;20040;-57
2023/06/02 10:55:08;;;;;;;11.95;10.75;;;;;;;25.55;51.25;100715.66;5074880;28;20044;-57
2023/06/02 10:57:56;;;;;;;11.18;9.98;;;;;;;25.55;51.27;100710.22;5074913;28;20052;-58
2023/06/02 11:00:29;;;;;;;10.90;9.77;;;;;;;25.57;50.96;100702.78;5075267;28;20040;-57
2023/06/02 11:02:57;;;;;;;10.82;9.73;;;;;;;25.57;50.85;100710.06;5079379;28;20044;-58
2023/06/02 11:05:26;;;;;;;11.80;10.27;;;;;;;25.56;50.55;100698.41;5095146;28;20051;-58
2023/06/02 11:08:11;;;;;;;10.25;9.25;;;;;;;25.57;50.48;100702.78;5095021;28;20519;-56
2023/06/02 11:10:45;;;;;;;10.15;9.15;;;;;;;25.58;50.72;100709.06;5095152;28;20047;-57
2023/06/02 11:13:14;;;;;;;9.38;8.35;;;;;;;25.59;50.56;100705.31;5095174;28;20060;-58
2023/06/02 11:16:06;;;;;;;8.10;6.85;;;;;;;25.60;50.05;100698.84;5076759;28;20048;-58
2023/06/02 11:18:33;;;;;;;9.40;6.90;;;;;;;25.60;50.05;100697.03;5094497;28;20048;-58
2023/06/02 11:21:17;;;;;;;8.45;7.45;;;;;;;25.60;49.96;100698.84;5094347;28;20048;-57
2023/06/02 11:23:45;;;;;;;7.80;6.75;;;;;;;25.61;50.04;100695.16;5094774;28;20055;-56
2023/06/02 11:26:19;;;;;;;6.28;5.68;;;;;;;25.63;50.13;100693.09;5094567;28;20040;-56
2023/06/02 11:28:47;;;;;;;7.47;6.25;;;;;;;25.63;50.40;100702.06;5095011;28;20040;-56
2023/06/02 11:31:17;;;;;;;7.38;6.55;;;;;;;25.63;50.63;100688.50;5094801;28;20055;-57
2023/06/02 11:33:51;;;;;;;7.60;6.18;;;;;;;25.64;50.46;100689.34;5094317;28;20055;-56
2023/06/02 11:36:29;;;;;;;8.50;6.80;;;;;;;25.63;50.48;100685.81;5094248;28;20039;-56